Time;durP1;ratioP1;P1;durP2;ratioP2;P2;SDS_P1;SDS_P2;PMS_P1;PMS_P2;Temp;Humidity;BMP_temperature;BMP_pressure;BME280_temperature;BME280_humidity;BME280_pressure;Samples;Min_cycle;Max_cycle;Signal;HPM_P1;HPM_P2
2023/04/23 00:00:12;;;;;;;;;;;;;;;-144.99;95.29;52254.47;4967579;28;19950;-67
2023/04/23 00:02:39;;;;;;;;;;;;;;;-144.99;95.41;52174.97;4959716;28;20178;-67
2023/04/23 00:05:09;;;;;;;;;;;;;;;-144.99;94.72;52236.13;4962207;28;20287;-65
2023/04/23 00:07:36;;;;;;;;;;;;;;;-144.99;94.39;52215.75;4957037;28;19926;-65
2023/04/23 00:10:04;;;;;;;;;;;;;;;-144.99;94.39;52199.44;4959186;28;19990;-66
2023/04/23 00:12:31;;;;;;;;;;;;;;;-144.99;94.44;52219.81;4966284;28;19926;-65
2023/04/23 00:14:58;;;;;;;;;;;;;;;-144.99;94.55;52236.13;4970685;28;19926;-64
2023/04/23 00:17:24;;;;;;;;;;;;;;;-144.99;94.57;52240.19;4969475;28;20470;-67
2023/04/23 00:19:51;;;;;;;;;;;;;;;-144.99;95.37;52230.00;4978663;28;20346;-65
2023/04/23 00:22:20;;;;;;;;;;;;;;;-144.99;95.42;52215.75;4964321;28;20030;-65
2023/04/23 00:24:47;;;;;;;;;;;;;;;-144.99;95.46;52248.34;4970900;28;19958;-66
2023/04/23 00:27:14;;;;;;;;;;;;;;;-144.99;96.03;52244.28;4965796;28;20121;-65
2023/04/23 00:29:42;;;;;;;;;;;;;;;-144.99;96.24;52207.59;4969897;28;19973;-63
2023/04/23 00:32:08;;;;;;;;;;;;;;;-144.99;96.43;52248.34;4969672;28;20520;-65
2023/04/23 00:34:35;;;;;;;;;;;;;;;-144.99;96.55;52248.34;4968101;28;19992;-64
2023/04/23 00:37:04;;;;;;;;;;;;;;;-144.99;97.22;52219.81;4962143;28;19961;-66
2023/04/23 00:39:32;;;;;;;;;;;;;;;-144.99;97.18;52232.03;4961769;28;19926;-67
2023/04/23 00:42:05;;;;;;;;;;;;;;;-144.99;97.64;52227.97;4965664;28;19973;-68
2023/04/23 00:44:32;;;;;;;;;;;;;;;-144.99;98.14;52236.13;4969602;28;19948;-67
2023/04/23 00:46:59;;;;;;;;;;;;;;;-144.99;99.05;52240.19;4969220;28;19930;-67
2023/04/23 00:49:26;;;;;;;;;;;;;;;-144.99;98.92;52254.47;4967815;28;19930;-66
2023/04/23 00:51:52;;;;;;;;;;;;;;;-144.99;99.17;52215.75;4960105;28;19961;-64
2023/04/23 00:54:19;;;;;;;;;;;;;;;-144.99;99.66;52244.28;4968809;28;19937;-66
2023/04/23 00:56:47;;;;;;;;;;;;;;;-144.99;99.56;52223.88;4961230;28;19930;-68
2023/04/23 00:59:13;;;;;;;;;;;;;;;-144.99;99.87;52230.00;4960812;28;19962;-70
2023/04/23 01:01:40;;;;;;;;;;;;;;;-144.99;100.00;52207.59;4968631;28;19926;-68
2023/04/23 01:04:08;;;;;;;;;;;;;;;-144.99;100.00;52211.66;4964142;28;20021;-67
2023/04/23 01:06:35;;;;;;;;;;;;;;;-144.99;100.00;52250.38;4967944;28;19926;-70
2023/04/23 01:09:02;;;;;;;;;;;;;;;-144.99;100.00;52219.81;4969094;28;19926;-68
2023/04/23 01:11:29;;;;;;;;;;;;;;;-144.99;100.00;52248.34;4968626;28;20340;-66
2023/04/23 01:13:58;;;;;;;;;;;;;;;-144.99;100.00;52252.44;4969680;28;19961;-66
2023/04/23 01:16:24;;;;;;;;;;;;;;;-144.99;99.36;52225.94;4960711;28;19992;-66
2023/04/23 01:18:52;;;;;;;;;;;;;;;-144.99;97.82;52256.50;4965220;28;19984;-65
2023/04/23 01:21:19;;;;;;;;;;;;;;;-144.99;97.85;52252.44;4967128;28;19937;-65
2023/04/23 01:23:47;;;;;;;;;;;;;;;-144.99;97.04;52246.31;4968826;28;20348;-66
2023/04/23 01:26:14;;;;;;;;;;;;;;;-144.99;97.20;52250.38;4960648;28;19926;-66
2023/04/23 01:28:41;;;;;;;;;;;;;;;-144.99;97.32;52240.19;4968821;28;19988;-66
2023/04/23 01:31:07;;;;;;;;;;;;;;;-144.99;97.62;52268.72;4972333;28;19930;-67
2023/04/23 01:33:34;;;;;;;;;;;;;;;-144.99;98.48;52252.44;4972786;28;20442;-66
2023/04/23 01:36:02;;;;;;;;;;;;;;;-144.99;99.08;52276.88;4972546;28;20415;-65
2023/04/23 01:38:30;;;;;;;;;;;;;;;-144.99;99.99;52264.66;4972368;28;20412;-65
2023/04/23 01:40:58;;;;;;;;;;;;;;;-144.99;100.00;52280.97;4972421;28;20344;-66
2023/04/23 01:43:25;;;;;;;;;;;;;;;-144.99;100.00;52264.66;4969239;28;19965;-66
2023/04/23 01:45:52;;;;;;;;;;;;;;;-144.99;100.00;52278.91;4972250;28;19938;-66
2023/04/23 01:48:18;;;;;;;;;;;;;;;-144.99;100.00;52260.56;4972145;28;20623;-67
2023/04/23 01:50:45;;;;;;;;;;;;;;;-144.99;100.00;52258.53;4968866;28;19985;-66
2023/04/23 01:53:11;;;;;;;;;;;;;;;-144.99;100.00;52289.13;4971941;28;19926;-66
2023/04/23 01:55:41;;;;;;;;;;;;;;;-144.99;100.00;52252.44;4974661;28;19969;-65
2023/04/23 01:58:08;;;;;;;;;;;;;;;-144.99;100.00;52256.50;4971749;28;20370;-67
2023/04/23 02:00:35;;;;;;;;;;;;;;;-144.99;100.00;52268.72;4969401;28;19981;-69
2023/04/23 02:03:02;;;;;;;;;;;;;;;-144.99;100.00;52266.69;4980037;28;20293;-69
2023/04/23 02:05:29;;;;;;;;;;;;;;;-144.99;100.00;52280.97;4969164;28;20481;-72
2023/04/23 02:07:56;;;;;;;;;;;;;;;-144.99;100.00;52244.28;4964371;28;19930;-68
2023/04/23 02:10:22;;;;;;;;;;;;;;;-144.99;100.00;52260.56;4972302;28;19930;-67
2023/04/23 02:12:49;;;;;;;;;;;;;;;-144.99;100.00;52260.56;4968924;28;20048;-71
2023/04/23 02:15:18;;;;;;;;;;;;;;;-144.99;100.00;52256.50;4972191;28;19926;-69
2023/04/23 02:17:45;;;;;;;;;;;;;;;-144.99;100.00;52240.19;4971403;28;20017;-71
2023/04/23 02:20:12;;;;;;;;;;;;;;;-144.99;100.00;52213.69;4974170;28;19993;-71
2023/04/23 02:22:39;;;;;;;;;;;;;;;-144.99;100.00;52246.31;4967658;28;19926;-71
2023/04/23 02:25:07;;;;;;;;;;;;;;;-144.99;100.00;52248.34;4964598;28;20004;-70
2023/04/23 02:27:33;;;;;;;;;;;;;;;-144.99;100.00;52278.91;4970721;28;20048;-71
2023/04/23 02:30:00;;;;;;;;;;;;;;;-144.99;100.00;52254.47;4968937;28;19926;-72
2023/04/23 02:32:28;;;;;;;;;;;;;;;-144.99;100.00;52234.09;4963451;28;19955;-71
2023/04/23 02:34:55;;;;;;;;;;;;;;;-144.99;100.00;52313.56;4966948;28;19984;-71
2023/04/23 02:37:21;;;;;;;;;;;;;;;-144.99;100.00;52289.13;4961942;28;19941;-70
2023/04/23 02:39:48;;;;;;;;;;;;;;;-144.99;100.00;52252.44;4964738;28;20128;-67
2023/04/23 02:42:14;;;;;;;;;;;;;;;-144.99;100.00;52244.28;4969943;28;19988;-68
2023/04/23 02:44:41;;;;;;;;;;;;;;;-144.99;100.00;52272.81;4965221;28;19926;-71
2023/04/23 02:47:07;;;;;;;;;;;;;;;-144.99;100.00;52280.97;4970849;28;19986;-70
2023/04/23 02:49:35;;;;;;;;;;;;;;;-144.99;100.00;52260.56;4965473;28;19926;-69
2023/04/23 02:52:02;;;;;;;;;;;;;;;-144.99;100.00;52223.88;4971551;28;19926;-70
2023/04/23 02:54:31;;;;;;;;;;;;;;;-144.99;100.00;52244.28;4974621;28;20023;-66
2023/04/23 02:56:57;;;;;;;;;;;;;;;-144.99;100.00;52248.34;4978079;28;19980;-68
2023/04/23 02:59:24;;;;;;;;;;;;;;;-144.99;100.00;52289.13;4971886;28;19968;-67
2023/04/23 03:01:51;;;;;;;;;;;;;;;-144.99;100.00;52195.34;4975252;28;19926;-69
2023/04/23 03:04:18;;;;;;;;;;;;;;;-144.99;100.00;52280.97;4967282;28;19985;-69
2023/04/23 03:06:46;;;;;;;;;;;;;;;-144.99;100.00;52280.97;4971249;28;19926;-67
2023/04/23 03:09:13;;;;;;;;;;;;;;;-144.99;100.00;52207.59;4970506;28;20402;-68
2023/04/23 03:11:39;;;;;;;;;;;;;;;-144.99;100.00;52264.66;4965692;28;19970;-68
2023/04/23 03:14:06;;;;;;;;;;;;;;;-144.99;100.00;52248.34;4970646;28;20362;-68
2023/04/23 03:16:32;;;;;;;;;;;;;;;-144.99;100.00;52264.66;4959678;28;19934;-72
2023/04/23 03:18:59;;;;;;;;;;;;;;;-144.99;100.00;52264.66;4968065;28;19926;-70
2023/04/23 03:21:26;;;;;;;;;;;;;;;-144.99;100.00;52307.47;4968402;28;19938;-71
2023/04/23 03:23:54;;;;;;;;;;;;;;;-144.99;100.00;52293.19;4966546;28;20288;-70
2023/04/23 03:26:20;;;;;;;;;;;;;;;-144.99;100.00;52238.16;4970588;28;19930;-73
2023/04/23 03:28:47;;;;;;;;;;;;;;;-144.99;100.00;52293.19;4966584;28;19930;-71
2023/04/23 03:31:13;;;;;;;;;;;;;;;-144.99;100.00;52238.16;4962832;28;19973;-71
2023/04/23 03:33:40;;;;;;;;;;;;;;;-144.99;100.00;52289.13;4968693;28;19970;-70
2023/04/23 03:36:07;;;;;;;;;;;;;;;-144.99;100.00;52246.31;4959200;28;19926;-70
2023/04/23 03:38:33;;;;;;;;;;;;;;;-144.99;100.00;52244.28;4969886;28;19953;-71
2023/04/23 03:41:01;;;;;;;;;;;;;;;-144.99;100.00;52240.19;4970862;28;19997;-68
2023/04/23 03:43:28;;;;;;;;;;;;;;;-144.99;100.00;52248.34;4971110;28;19989;-68
2023/04/23 03:45:54;;;;;;;;;;;;;;;-144.99;100.00;52215.75;4964556;28;19990;-67
2023/04/23 03:48:21;;;;;;;;;;;;;;;-144.99;100.00;52268.72;4969061;28;19930;-66
2023/04/23 03:50:47;;;;;;;;;;;;;;;-144.99;100.00;52227.97;4970261;28;20376;-65
2023/04/23 03:53:14;;;;;;;;;;;;;;;-144.99;100.00;52195.34;4970264;28;19992;-65
2023/04/23 03:55:40;;;;;;;;;;;;;;;-144.99;100.00;52256.50;4975826;28;19937;-64
2023/04/23 03:58:09;;;;;;;;;;;;;;;-144.99;100.00;52252.44;4967733;28;19926;-67
2023/04/23 04:00:36;;;;;;;;;;;;;;;-144.99;100.00;52276.88;4971753;28;19930;-64
2023/04/23 04:03:03;;;;;;;;;;;;;;;-144.99;100.00;52227.97;4971006;28;19934;-68
2023/04/23 04:05:29;;;;;;;;;;;;;;;-144.99;100.00;52240.19;4967349;28;19926;-67
2023/04/23 04:07:56;;;;;;;;;;;;;;;-144.99;100.00;52223.88;4966756;28;19985;-68
2023/04/23 04:10:22;;;;;;;;;;;;;;;-144.99;100.00;52227.97;4967378;28;20032;-67
2023/04/23 04:12:49;;;;;;;;;;;;;;;-144.99;100.00;52285.03;4966618;28;19937;-67
2023/04/23 04:15:19;;;;;;;;;;;;;;;-144.99;100.00;52276.88;4969276;28;19926;-68
2023/04/23 04:17:45;;;;;;;;;;;;;;;-144.99;100.00;52250.38;4968764;28;19981;-68
2023/04/23 04:20:12;;;;;;;;;;;;;;;-144.99;100.00;52297.25;4970213;28;19930;-68
2023/04/23 04:22:38;;;;;;;;;;;;;;;-144.99;100.00;52260.56;4962121;28;19938;-66
2023/04/23 04:25:06;;;;;;;;;;;;;;;-144.99;100.00;52215.75;4969994;28;19992;-68
2023/04/23 04:27:33;;;;;;;;;;;;;;;-144.99;100.00;52225.94;4962421;28;19926;-67
2023/04/23 04:30:00;;;;;;;;;;;;;;;-144.99;100.00;52272.81;4965535;28;20040;-67
2023/04/23 04:32:28;;;;;;;;;;;;;;;-144.99;100.00;52289.13;4962302;28;19956;-68
2023/04/23 04:34:54;;;;;;;;;;;;;;;-144.99;100.00;52270.78;4969978;28;19930;-68
2023/04/23 04:37:21;;;;;;;;;;;;;;;-144.99;100.00;52256.50;4967219;28;19973;-68
2023/04/23 04:39:47;;;;;;;;;;;;;;;-144.99;100.00;52289.13;4963760;28;19989;-68
2023/04/23 04:42:14;;;;;;;;;;;;;;;-144.99;100.00;52293.19;4968219;28;19981;-65
2023/04/23 04:44:42;;;;;;;;;;;;;;;-144.99;100.00;52232.03;4962907;28;19930;-64
2023/04/23 04:47:08;;;;;;;;;;;;;;;-144.99;100.00;52248.34;4968388;28;20041;-65
2023/04/23 04:49:37;;;;;;;;;;;;;;;-144.99;100.00;52238.16;4951256;28;19930;-65
2023/04/23 04:52:03;;;;;;;;;;;;;;;-144.99;100.00;52240.19;4965463;28;19930;-65
2023/04/23 04:54:30;;;;;;;;;;;;;;;-144.99;100.00;52272.81;4966370;28;20138;-66
2023/04/23 04:56:56;;;;;;;;;;;;;;;-144.99;100.00;52280.97;4968959;28;20451;-65
2023/04/23 04:59:23;;;;;;;;;;;;;;;-144.99;100.00;52268.72;4956028;28;19974;-66
2023/04/23 05:01:49;;;;;;;;;;;;;;;-144.99;100.00;52297.25;4962407;28;19937;-67
2023/04/23 05:04:16;;;;;;;;;;;;;;;-144.99;100.00;52301.34;4965156;28;19934;-67
2023/04/23 05:06:44;;;;;;;;;;;;;;;-144.99;100.00;52285.03;4963335;28;19937;-68
2023/04/23 05:09:11;;;;;;;;;;;;;;;-144.99;100.00;52280.97;4961231;28;20045;-66
2023/04/23 05:11:37;;;;;;;;;;;;;;;-144.99;100.00;52230.00;4966449;28;19929;-67
2023/04/23 05:14:04;;;;;;;;;;;;;;;-144.99;100.00;52272.81;4971364;28;20290;-70
2023/04/23 05:16:30;;;;;;;;;;;;;;;-144.99;100.00;52264.66;4979861;28;19930;-63
2023/04/23 05:18:57;;;;;;;;;;;;;;;-144.99;100.00;52248.34;4972199;28;19926;-63
2023/04/23 05:21:26;;;;;;;;;;;;;;;-144.99;100.00;52285.03;4969649;28;20000;-64
2023/04/23 05:23:53;;;;;;;;;;;;;;;-144.99;100.00;52289.13;4970396;28;20021;-62
2023/04/23 05:26:20;;;;;;;;;;;;;;;-144.99;100.00;52272.81;4967814;28;19961;-62
2023/04/23 05:28:46;;;;;;;;;;;;;;;-144.99;100.00;52297.25;4961855;28;19926;-64
2023/04/23 05:31:13;;;;;;;;;;;;;;;-144.99;100.00;52285.03;4970837;28;19980;-70
2023/04/23 05:33:42;;;;;;;;;;;;;;;-144.99;100.00;52280.97;4970777;28;20000;-69
2023/04/23 05:36:09;;;;;;;;;;;;;;;-144.99;100.00;52256.50;4969232;28;20216;-71
2023/04/23 05:38:36;;;;;;;;;;;;;;;-144.99;100.00;52305.41;4966140;28;20363;-71
2023/04/23 05:41:04;;;;;;;;;;;;;;;-144.99;100.00;52305.41;4969538;28;19984;-70
2023/04/23 05:43:30;;;;;;;;;;;;;;;-144.99;100.00;52264.66;4969456;28;19969;-65
2023/04/23 05:45:57;;;;;;;;;;;;;;;-144.99;100.00;52268.72;4969000;28;19977;-64
2023/04/23 05:48:23;;;;;;;;;;;;;;;-144.99;100.00;52297.25;4968359;28;19930;-65
2023/04/23 05:50:50;;;;;;;;;;;;;;;-144.99;100.00;52293.19;4968506;28;19957;-66
2023/04/23 05:53:16;;;;;;;;;;;;;;;-144.99;100.00;52266.69;4966941;28;20000;-63
2023/04/23 05:55:43;;;;;;;;;;;;;;;-144.99;100.00;52289.13;4973103;28;19930;-63
2023/04/23 05:58:11;;;;;;;;;;;;;;;-144.99;100.00;52260.56;4964190;28;19930;-63
2023/04/23 06:00:39;;;;;;;;;;;;;;;-144.99;100.00;52285.03;4961401;28;19937;-66
2023/04/23 06:03:06;;;;;;;;;;;;;;;-144.99;100.00;52280.97;4966371;28;20000;-67
2023/04/23 06:05:32;;;;;;;;;;;;;;;-144.99;100.00;52254.47;4961124;28;19993;-66
2023/04/23 06:07:59;;;;;;;;;;;;;;;-144.99;100.00;52213.69;4965362;28;20036;-66
2023/04/23 06:10:25;;;;;;;;;;;;;;;-144.99;100.00;52254.47;4968631;28;20379;-75
2023/04/23 06:12:54;;;;;;;;;;;;;;;-144.99;99.58;52244.28;4968947;28;19949;-73
2023/04/23 06:15:25;;;;;;;;;;;;;;;-144.99;98.92;52244.28;4970762;28;19926;-73
2023/04/23 06:17:52;;;;;;;;;;;;;;;-144.99;98.47;52242.22;4971711;28;19926;-72
2023/04/23 06:20:18;;;;;;;;;;;;;;;-144.99;98.79;52276.88;4972462;28;19973;-73
2023/04/23 06:22:45;;;;;;;;;;;;;;;-144.99;97.74;52268.72;4971460;28;20001;-68
2023/04/23 06:25:11;;;;;;;;;;;;;;;-144.99;96.68;52276.88;4972205;28;19933;-69
2023/04/23 06:27:38;;;;;;;;;;;;;;;-144.99;96.23;52264.66;4961100;28;19930;-72
2023/04/23 06:30:05;;;;;;;;;;;;;;;-144.99;96.18;52264.66;4972420;28;19938;-69
2023/04/23 06:32:33;;;;;;;;;;;;;;;-144.99;95.11;52254.47;4968184;28;19934;-67
2023/04/23 06:34:59;;;;;;;;;;;;;;;-144.99;94.71;52227.97;4967542;28;19926;-67
2023/04/23 06:37:27;;;;;;;;;;;;;;;-144.99;93.55;52258.53;4967945;28;20308;-67
2023/04/23 06:39:53;;;;;;;;;;;;;;;-144.99;93.12;52248.34;4966594;28;19973;-66
2023/04/23 06:42:20;;;;;;;;;;;;;;;-144.99;92.35;52236.13;4961221;28;20140;-66
2023/04/23 06:44:47;;;;;;;;;;;;;;;-144.99;92.29;52260.56;4966119;28;19926;-66
2023/04/23 06:47:13;;;;;;;;;;;;;;;-144.99;92.36;52244.28;4970901;28;19949;-66
2023/04/23 06:49:41;;;;;;;;;;;;;;;-144.99;91.68;52240.19;4960077;28;19942;-66
2023/04/23 06:52:08;;;;;;;;;;;;;;;-144.99;91.02;52213.69;4971439;28;20009;-66
2023/04/23 06:54:34;;;;;;;;;;;;;;;-144.99;90.93;52232.03;4977307;28;19934;-66
2023/04/23 06:57:01;;;;;;;;;;;;;;;-144.99;90.99;52264.66;4971341;28;20024;-66
2023/04/23 06:59:28;;;;;;;;;;;;;;;-144.99;90.95;52244.28;4963211;28;19931;-67
2023/04/23 07:01:54;;;;;;;;;;;;;;;-144.99;90.62;52280.97;4963342;28;19993;-66
2023/04/23 07:04:21;;;;;;;;;;;;;;;-144.99;89.26;52240.19;4970893;28;19973;-67
2023/04/23 07:06:48;;;;;;;;;;;;;;;-144.99;89.92;52258.53;4971923;28;19958;-66
2023/04/23 07:09:15;;;;;;;;;;;;;;;-144.99;90.38;52256.50;4971487;28;19973;-67
2023/04/23 07:11:42;;;;;;;;;;;;;;;-144.99;89.83;52248.34;4972183;28;19933;-68
2023/04/23 07:14:08;;;;;;;;;;;;;;;-144.99;89.63;52264.66;4971935;28;19984;-69
2023/04/23 07:16:35;;;;;;;;;;;;;;;-144.99;89.43;52240.19;4971982;28;19985;-64
2023/04/23 07:19:01;;;;;;;;;;;;;;;-144.99;90.04;52232.03;4968122;28;19926;-67
2023/04/23 07:21:28;;;;;;;;;;;;;;;-144.99;91.12;52285.03;4971940;28;20068;-67
2023/04/23 07:23:57;;;;;;;;;;;;;;;-144.99;90.70;52260.56;4967048;28;19998;-66
2023/04/23 07:26:24;;;;;;;;;;;;;;;-144.99;89.59;52252.44;4960883;28;19985;-66
2023/04/23 07:28:50;;;;;;;;;;;;;;;-144.99;90.16;52264.66;4958989;28;19976;-66
2023/04/23 07:31:18;;;;;;;;;;;;;;;-144.99;89.20;52223.88;4968850;28;19934;-65
2023/04/23 07:33:44;;;;;;;;;;;;;;;-144.99;88.86;52215.75;4967211;28;20423;-66
2023/04/23 07:36:11;;;;;;;;;;;;;;;-144.99;88.05;52230.00;4959144;28;20295;-65
2023/04/23 07:38:38;;;;;;;;;;;;;;;-144.99;88.53;52260.56;4959109;28;20438;-66
2023/04/23 07:41:05;;;;;;;;;;;;;;;-144.99;89.73;52236.13;4977303;28;19933;-66
2023/04/23 07:43:32;;;;;;;;;;;;;;;-144.99;88.83;52232.03;4968163;28;19926;-66
2023/04/23 07:45:59;;;;;;;;;;;;;;;-144.99;89.06;52280.97;4970637;28;20213;-65
2023/04/23 07:48:25;;;;;;;;;;;;;;;-144.99;89.12;52264.66;4970350;28;19926;-66
2023/04/23 07:50:52;;;;;;;;;;;;;;;-144.99;87.90;52301.34;4970945;28;19933;-67
2023/04/23 07:53:18;;;;;;;;;;;;;;;-144.99;87.05;52276.88;4967806;28;19931;-67
2023/04/23 07:55:45;;;;;;;;;;;;;;;-144.99;87.52;52238.16;4971871;28;19926;-68
2023/04/23 07:58:13;;;;;;;;;;;;;;;-144.99;88.01;52256.50;4970437;28;19927;-66
2023/04/23 08:00:39;;;;;;;;;;;;;;;-144.99;86.79;52248.34;4965664;28;19930;-66
2023/04/23 08:03:06;;;;;;;;;;;;;;;-144.99;87.13;52285.03;4964598;28;20042;-66
2023/04/23 08:05:32;;;;;;;;;;;;;;;-144.99;86.34;52248.34;4960783;28;20004;-67
2023/04/23 08:07:59;;;;;;;;;;;;;;;-144.99;87.68;52280.97;4969637;28;20072;-69
2023/04/23 08:10:25;;;;;;;;;;;;;;;-144.99;88.05;52260.56;4959225;28;20000;-69
2023/04/23 08:12:52;;;;;;;;;;;;;;;-144.99;87.48;52260.56;4967802;28;19930;-68
2023/04/23 08:15:20;;;;;;;;;;;;;;;-144.99;86.95;52260.56;4961674;28;20098;-66
2023/04/23 08:17:46;;;;;;;;;;;;;;;-144.99;85.07;52174.97;4968793;28;19937;-67
2023/04/23 08:20:13;;;;;;;;;;;;;;;-144.99;84.56;52248.34;4969104;28;19965;-66
2023/04/23 08:22:39;;;;;;;;;;;;;;;-144.99;83.97;52232.03;4968890;28;20495;-67
2023/04/23 08:25:06;;;;;;;;;;;;;;;-144.99;83.94;52268.72;4962037;28;20319;-67
2023/04/23 08:27:33;;;;;;;;;;;;;;;-144.99;83.80;52258.53;4965625;28;19952;-67
2023/04/23 08:29:59;;;;;;;;;;;;;;;-144.99;83.45;52234.09;4966918;28;19930;-65
2023/04/23 08:32:27;;;;;;;;;;;;;;;-144.99;82.81;52254.47;4966674;28;19926;-66
2023/04/23 08:34:54;;;;;;;;;;;;;;;-144.99;82.62;52199.44;4964968;28;19933;-66
2023/04/23 08:37:20;;;;;;;;;;;;;;;-144.99;82.15;52236.13;4962154;28;20361;-66
2023/04/23 08:39:47;;;;;;;;;;;;;;;-144.99;81.59;52195.34;4963291;28;20459;-66
2023/04/23 08:42:18;;;;;;;;;;;;;;;-144.99;82.08;52211.66;4967078;28;19926;-66
2023/04/23 08:44:46;;;;;;;;;;;;;;;-144.99;81.09;52213.69;4966017;28;19926;-66
2023/04/23 08:47:16;;;;;;;;;;;;;;;-144.99;81.26;52268.72;4967665;28;19981;-66
2023/04/23 08:49:45;;;;;;;;;;;;;;;-144.99;81.44;52248.34;4962339;28;20307;-67
2023/04/23 08:52:15;;;;;;;;;;;;;;;-144.99;82.43;52219.81;4971645;28;19973;-67
2023/04/23 08:54:45;;;;;;;;;;;;;;;-144.99;79.92;52240.19;4973572;28;19926;-67
2023/04/23 08:57:12;;;;;;;;;;;;;;;-144.99;80.31;52232.03;4961594;28;20311;-66
2023/04/23 08:59:39;;;;;;;;;;;;;;;-144.99;80.56;52227.97;4966818;28;19985;-66
2023/04/23 09:02:08;;;;;;;;;;;;;;;-144.99;80.51;52227.97;4961770;28;19926;-67
2023/04/23 09:04:35;;;;;;;;;;;;;;;-144.99;79.72;52203.50;4965960;28;19941;-66
2023/04/23 09:07:03;;;;;;;;;;;;;;;-144.99;78.96;52199.44;4963762;28;20300;-67
2023/04/23 09:09:30;;;;;;;;;;;;;;;-144.99;78.07;52215.75;4958307;28;19934;-67
2023/04/23 09:11:56;;;;;;;;;;;;;;;-144.99;77.99;52203.50;4969933;28;20431;-67
2023/04/23 09:14:24;;;;;;;;;;;;;;;-144.99;78.61;52209.63;4969895;28;19929;-67
2023/04/23 09:16:51;;;;;;;;;;;;;;;-144.99;77.47;52240.19;4969815;28;20259;-67
2023/04/23 09:19:18;;;;;;;;;;;;;;;-144.99;76.34;52195.34;4970886;28;19973;-66
2023/04/23 09:21:45;;;;;;;;;;;;;;;-144.99;76.34;52250.38;4962460;28;19972;-66
2023/04/23 09:24:13;;;;;;;;;;;;;;;-144.99;75.47;52195.34;4969855;28;20370;-66
2023/04/23 09:26:45;;;;;;;;;;;;;;;-144.99;76.27;52205.53;4966963;28;19937;-66
2023/04/23 09:29:16;;;;;;;;;;;;;;;-144.99;76.34;52211.66;4965519;28;19926;-67
2023/04/23 09:31:42;;;;;;;;;;;;;;;-144.99;75.32;52170.91;4967284;28;19927;-67
2023/04/23 09:34:09;;;;;;;;;;;;;;;-144.99;74.85;52209.63;4960828;28;20359;-68
2023/04/23 09:36:37;;;;;;;;;;;;;;;-144.99;74.87;52179.06;4968921;28;19969;-65
2023/04/23 09:39:11;;;;;;;;;;;;;;;-144.99;74.53;52174.97;4968600;28;20363;-66
2023/04/23 09:41:39;;;;;;;;;;;;;;;-144.99;73.44;52205.53;4963358;28;19997;-65
2023/04/23 09:44:06;;;;;;;;;;;;;;;-144.99;71.92;52170.91;4969019;28;19961;-64
2023/04/23 09:46:36;;;;;;;;;;;;;;;-144.99;73.26;52199.44;4963481;28;20318;-68
2023/04/23 09:49:06;;;;;;;;;;;;;;;-144.99;72.48;52170.91;4971234;28;20153;-68
2023/04/23 09:51:33;;;;;;;;;;;;;;;-144.99;72.66;52197.41;4967373;28;19930;-69
2023/04/23 09:54:01;;;;;;;;;;;;;;;-144.99;72.53;52162.75;4973758;28;20027;-66
2023/04/23 09:56:28;;;;;;;;;;;;;;;-144.99;70.80;52121.97;4972480;28;20014;-66
2023/04/23 09:58:55;;;;;;;;;;;;;;;-144.99;71.47;52179.06;4970578;28;19989;-66
2023/04/23 10:01:27;;;;;;;;;;;;;;;-144.99;71.16;52134.22;4972691;28;19962;-68
2023/04/23 10:03:55;;;;;;;;;;;;;;;-144.99;70.82;52160.72;4972191;28;20154;-67
2023/04/23 10:06:27;;;;;;;;;;;;;;;-144.99;70.85;52164.78;4969234;28;19936;-67
2023/04/23 10:08:55;;;;;;;;;;;;;;;-144.99;69.93;52146.44;4974881;28;19926;-67
2023/04/23 10:11:22;;;;;;;;;;;;;;;-144.99;69.73;52121.97;4973296;28;20303;-67
2023/04/23 10:13:49;;;;;;;;;;;;;;;-144.99;70.40;52126.06;4972532;28;20353;-67
2023/04/23 10:16:18;;;;;;;;;;;;;;;-144.99;69.84;52121.97;4969391;28;19958;-68
2023/04/23 10:18:44;;;;;;;;;;;;;;;-144.99;69.64;52134.22;4972257;28;19953;-68
2023/04/23 10:21:12;;;;;;;;;;;;;;;-144.99;69.27;52109.75;4972360;28;20006;-68
2023/04/23 10:23:40;;;;;;;;;;;;;;;-144.99;69.41;52126.06;4974691;28;19930;-68
2023/04/23 10:26:08;;;;;;;;;;;;;;;-144.99;68.90;52083.25;4975069;28;20311;-68
2023/04/23 10:28:35;;;;;;;;;;;;;;;-144.99;68.30;52073.06;4971794;28;20012;-68
2023/04/23 10:31:03;;;;;;;;;;;;;;;-144.99;68.05;52101.59;4969551;28;19974;-67
2023/04/23 10:33:32;;;;;;;;;;;;;;;-144.99;67.63;52117.91;4971297;28;20284;-68
2023/04/23 10:35:59;;;;;;;;;;;;;;;-144.99;68.00;52089.38;4971845;28;20307;-67
2023/04/23 10:38:27;;;;;;;;;;;;;;;-144.99;66.73;52052.69;4971118;28;20434;-67
2023/04/23 10:40:55;;;;;;;;;;;;;;;-144.99;66.77;52052.69;4971569;28;20025;-66
2023/04/23 10:43:22;;;;;;;;;;;;;;;-144.99;67.07;52040.47;4968916;28;20403;-67
2023/04/23 10:45:49;;;;;;;;;;;;;;;-144.99;65.73;52028.22;4971240;28;20310;-66
2023/04/23 10:48:16;;;;;;;;;;;;;;;-144.99;66.09;52032.31;4970687;28;20480;-68
2023/04/23 10:50:46;;;;;;;;;;;;;;;-144.99;66.35;52032.31;4971687;28;19926;-68
2023/04/23 10:53:18;;;;;;;;;;;;;;;-144.99;66.34;52024.16;4971254;28;19926;-68
2023/04/23 10:55:45;;;;;;;;;;;;;;;-144.99;65.77;51991.56;4976453;28;20045;-67
2023/04/23 10:58:11;;;;;;;;;;;;;;;-144.99;64.94;51985.44;4965877;28;19990;-68
2023/04/23 11:00:45;;;;;;;;;;;;;;;-144.99;64.90;51981.38;4969797;28;19930;-68
2023/04/23 11:03:26;;;;;;;;;;;;;;;-144.99;63.98;51999.69;4964895;28;19926;-69
2023/04/23 11:05:54;;;;;;;;;;;;;;;-144.99;64.60;52007.84;4966472;28;19957;-68
2023/04/23 11:08:21;;;;;;;;;;;;;;;-144.99;63.89;51989.50;4968940;28;20036;-68
2023/04/23 11:10:57;;;;;;;;;;;;;;;-144.99;63.46;51950.78;4966628;28;19926;-68
2023/04/23 11:13:24;;;;;;;;;;;;;;;-144.99;63.09;52003.78;4968512;28;19926;-69
2023/04/23 11:16:06;;;;;;;;;;;;;;;-144.99;63.15;51995.63;4954682;28;19930;-68
2023/04/23 11:18:52;;;;;;;;;;;;;;;-144.99;62.54;51954.88;4959207;28;20533;-68
2023/04/23 11:21:20;;;;;;;;;;;;;;;-144.99;62.36;51967.09;4953591;28;20190;-68
2023/04/23 11:23:47;;;;;;;;;;;;;;;-144.99;62.90;51967.09;4958119;28;20306;-67
2023/04/23 11:26:15;;;;;;;;;;;;;;;-144.99;63.17;51960.97;4955930;28;19930;-68
2023/04/23 11:28:43;;;;;;;;;;;;;;;-144.99;62.97;51965.06;4959368;28;20534;-67
2023/04/23 11:31:09;;;;;;;;;;;;;;;-144.99;62.94;52003.78;4955345;28;19973;-65
2023/04/23 11:33:37;;;;;;;;;;;;;;;-144.99;62.11;51926.34;4958196;28;20268;-66
2023/04/23 11:36:04;;;;;;;;;;;;;;;-144.99;61.86;51942.63;4958250;28;19930;-69
2023/04/23 11:38:32;;;;;;;;;;;;;;;-144.99;62.39;51938.56;4958527;28;19985;-71
2023/04/23 11:41:01;;;;;;;;;;;;;;;-144.99;62.72;51999.69;4955937;28;20745;-70
2023/04/23 11:43:29;;;;;;;;;;;;;;;-144.99;62.40;51979.31;4970714;28;19926;-70
2023/04/23 11:45:55;;;;;;;;;;;;;;;-144.99;63.20;51987.47;4971158;28;19937;-70
2023/04/23 11:48:23;;;;;;;;;;;;;;;-144.99;63.35;51975.25;4970975;28;19991;-70
2023/04/23 11:50:50;;;;;;;;;;;;;;;-144.99;62.67;51979.31;4970081;28;19934;-70
2023/04/23 11:53:16;;;;;;;;;;;;;;;-144.99;62.46;51942.63;4971482;28;19964;-70
2023/04/23 11:55:44;;;;;;;;;;;;;;;-144.99;63.11;51987.47;4972141;28;20340;-71
2023/04/23 11:58:11;;;;;;;;;;;;;;;-144.99;61.65;51979.31;4971614;28;19938;-70
2023/04/23 12:00:37;;;;;;;;;;;;;;;-144.99;62.42;51938.56;4972564;28;19977;-70
2023/04/23 12:03:04;;;;;;;;;;;;;;;-144.99;62.45;52001.75;4968963;28;19932;-70
2023/04/23 12:05:33;;;;;;;;;;;;;;;-144.99;61.99;51979.31;4969702;28;19996;-70
2023/04/23 12:08:07;;;;;;;;;;;;;;;-144.99;62.46;51989.50;4970969;28;20411;-70
2023/04/23 12:10:41;;;;;;;;;;;;;;;-144.99;61.93;51987.47;4962729;28;19930;-70
2023/04/23 12:13:13;;;;;;;;;;;;;;;-144.99;61.93;52016.00;4969972;28;19954;-70
2023/04/23 12:15:44;;;;;;;;;;;;;;;-144.99;61.54;51975.25;4970698;28;19996;-70
2023/04/23 12:18:11;;;;;;;;;;;;;;;-144.99;62.20;52018.03;4970694;28;20435;-70
2023/04/23 12:20:39;;;;;;;;;;;;;;;-144.99;62.85;51954.88;4970373;28;19992;-70
2023/04/23 12:23:07;;;;;;;;;;;;;;;-144.99;62.75;51985.44;4970580;28;20356;-70